Time;durP1;ratioP1;P1;durP2;ratioP2;P2;SDS_P1;SDS_P2;PMS_P1;PMS_P2;Temp;Humidity;BMP_temperature;BMP_pressure;BME280_temperature;BME280_humidity;BME280_pressure;Samples;Min_cycle;Max_cycle;Signal;HPM_P1;HPM_P2
2022/01/15 00:01:03;;;;;;;4.68;4.38;;;16.90;63.20;;;;;;4993812;28;20019;-20
2022/01/15 00:03:29;;;;;;;4.53;4.22;;;16.80;63.20;;;;;;4995478;28;20383;-21
2022/01/15 00:05:57;;;;;;;4.20;4.00;;;16.90;63.30;;;;;;4995824;28;20053;-21
2022/01/15 00:08:23;;;;;;;4.32;4.10;;;16.80;63.20;;;;;;4995565;28;20502;-21
2022/01/15 00:10:49;;;;;;;4.68;4.38;;;16.90;63.20;;;;;;4994298;28;20050;-21
2022/01/15 00:13:25;;;;;;;4.43;4.15;;;16.90;63.10;;;;;;4995265;28;20105;-21
2022/01/15 00:16:01;;;;;;;4.32;4.03;;;16.90;63.10;;;;;;4995346;28;20034;-22
2022/01/15 00:18:40;;;;;;;4.40;4.18;;;16.90;63.10;;;;;;4991789;28;20023;-20
2022/01/15 00:21:06;;;;;;;4.85;4.55;;;16.90;62.90;;;;;;4998033;28;20030;-18
2022/01/15 00:23:32;;;;;;;4.32;4.05;;;16.80;62.90;;;;;;4996996;28;20025;-21
2022/01/15 00:25:58;;;;;;;4.57;4.38;;;16.90;63.00;;;;;;4996687;28;20034;-21
2022/01/15 00:28:23;;;;;;;4.50;4.20;;;16.90;62.90;;;;;;4998910;28;20058;-19
2022/01/15 00:30:49;;;;;;;4.32;4.05;;;16.90;62.90;;;;;;4994853;28;20482;-21
2022/01/15 00:33:14;;;;;;;4.72;4.43;;;16.80;62.70;;;;;;4996953;28;20041;-20
2022/01/15 00:35:40;;;;;;;4.18;3.97;;;16.80;62.70;;;;;;4996610;28;20030;-22
2022/01/15 00:38:06;;;;;;;4.50;4.20;;;16.80;62.70;;;;;;4998618;28;20038;-21
2022/01/15 00:40:31;;;;;;;4.63;4.43;;;16.90;62.60;;;;;;4998588;28;20026;-21
2022/01/15 00:42:57;;;;;;;4.22;4.03;;;16.80;62.60;;;;;;4998699;28;20499;-21
2022/01/15 00:45:22;;;;;;;4.57;4.28;;;16.80;62.70;;;;;;4998240;28;20117;-18
2022/01/15 00:47:50;;;;;;;9.13;4.40;;;16.80;62.70;;;;;;4999219;28;20034;-19
2022/01/15 00:50:15;;;;;;;4.63;4.32;;;16.80;62.70;;;;;;4999728;28;20085;-21
2022/01/15 00:52:42;;;;;;;4.63;4.43;;;16.80;62.70;;;;;;4997851;28;20470;-21
2022/01/15 00:55:08;;;;;;;4.10;3.90;;;16.80;62.80;;;;;;4998819;28;20027;-21
2022/01/15 00:57:34;;;;;;;4.10;3.88;;;16.80;62.80;;;;;;4998969;28;20176;-21
2022/01/15 00:59:59;;;;;;;4.35;4.15;;;16.80;62.80;;;;;;4997854;28;20057;-19
2022/01/15 01:02:25;;;;;;;4.88;4.53;;;16.80;62.70;;;;;;4997263;28;20030;-20
2022/01/15 01:04:51;;;;;;;5.10;4.80;;;16.80;62.80;;;;;;4998975;28;20026;-19
2022/01/15 01:07:16;;;;;;;4.20;4.00;;;16.80;62.60;;;;;;4996788;28;20035;-18
2022/01/15 01:12:26;;;;;;;4.72;4.43;;;16.80;62.60;;;;;;4997865;28;20116;-20
2022/01/15 01:20:33;;;;;;;4.18;3.88;;;16.80;62.40;;;;;;4998386;28;20048;-19
2022/01/15 01:22:59;;;;;;;4.40;4.10;;;16.80;62.40;;;;;;4998711;28;20026;-19
2022/01/15 01:25:35;;;;;;;4.25;4.05;;;16.90;62.20;;;;;;4997962;28;20038;-21
2022/01/15 01:28:08;;;;;;;4.38;4.07;;;16.80;62.40;;;;;;4997239;28;20498;-19
2022/01/15 01:30:43;;;;;;;4.30;4.10;;;16.70;62.50;;;;;;4998136;28;20085;-19
2022/01/15 01:35:42;;;;;;;4.25;4.05;;;16.80;62.40;;;;;;4998505;28;20072;-19
2022/01/15 01:38:14;;;;;;;4.30;4.10;;;16.80;62.30;;;;;;4995193;28;20479;-22
2022/01/15 01:40:43;;;;;;;4.30;4.00;;;16.80;62.10;;;;;;4997766;28;20089;-21
2022/01/15 01:43:40;;;;;;;3.97;3.78;;;16.80;62.00;;;;;;4997118;28;20049;-21
2022/01/15 01:46:16;;;;;;;4.00;3.80;;;16.80;61.70;;;;;;4997124;28;20568;-21
2022/01/15 01:48:42;;;;;;;4.03;3.83;;;16.80;61.90;;;;;;4998584;28;20038;-20
2022/01/15 01:51:08;;;;;;;4.07;3.88;;;16.80;61.90;;;;;;4998129;28;20036;-20
2022/01/15 01:53:34;;;;;;;3.83;3.63;;;16.80;61.90;;;;;;4997071;28;20056;-19
2022/01/15 01:56:00;;;;;;;4.32;4.03;;;16.80;61.90;;;;;;4997966;28;20506;-21
2022/01/15 01:58:26;;;;;;;4.13;3.92;;;16.80;61.90;;;;;;4997599;28;20021;-20
2022/01/15 02:00:51;;;;;;;3.90;3.70;;;16.80;61.90;;;;;;4997357;28;20033;-21
2022/01/15 02:03:17;;;;;;;3.92;3.72;;;16.70;61.90;;;;;;4995777;28;20034;-19
2022/01/15 02:05:42;;;;;;;4.07;3.80;;;16.70;62.10;;;;;;4997339;28;20042;-18
2022/01/15 02:08:08;;;;;;;4.07;3.78;;;16.70;61.90;;;;;;4997784;28;20596;-21
2022/01/15 02:10:34;;;;;;;3.97;3.78;;;16.70;61.90;;;;;;4996485;28;20050;-18
2022/01/15 02:13:01;;;;;;;4.40;4.20;;;16.70;61.70;;;;;;4994605;28;20026;-21
2022/01/15 02:15:27;;;;;;;3.55;3.35;;;16.70;61.90;;;;;;4994524;28;20081;-21
2022/01/15 02:17:53;;;;;;;4.38;4.10;;;16.70;62.00;;;;;;4995980;28;20030;-20
2022/01/15 02:23:32;;;;;;;3.88;3.67;;;16.70;61.90;;;;;;4997223;28;20072;-19
2022/01/15 02:23:36;;;;;;;4.10;3.90;;;16.70;61.80;;;;;;4996901;28;20035;-21
2022/01/15 02:26:04;;;;;;;4.32;4.13;;;16.70;61.80;;;;;;4992594;28;20509;-18
2022/01/15 02:28:34;;;;;;;4.47;4.18;;;16.70;61.90;;;;;;4996464;28;20026;-21
2022/01/15 02:31:08;;;;;;;3.80;3.60;;;16.70;61.90;;;;;;5010853;28;20037;-21
2022/01/15 02:33:34;;;;;;;4.13;3.83;;;16.70;62.00;;;;;;4997465;28;20577;-21
2022/01/15 02:36:00;;;;;;;4.30;4.10;;;16.60;62.00;;;;;;4983049;28;20050;-21
2022/01/15 02:38:26;;;;;;;4.80;4.50;;;16.60;62.20;;;;;;4997193;28;20586;-20
2022/01/15 02:40:51;;;;;;;4.97;4.78;;;16.60;62.00;;;;;;4997644;28;20097;-21
2022/01/15 02:43:20;;;;;;;4.78;4.47;;;16.60;62.00;;;;;;4996950;28;20019;-21
2022/01/15 02:45:55;;;;;;;4.13;3.92;;;16.60;62.10;;;;;;4997170;28;20448;-21
2022/01/15 02:48:22;;;;;;;3.80;3.60;;;16.60;62.20;;;;;;4997550;28;20101;-21
2022/01/15 02:50:47;;;;;;;4.30;4.10;;;16.60;62.20;;;;;;4996914;28;20092;-19
2022/01/15 02:53:16;;;;;;;3.80;3.60;;;16.60;62.20;;;;;;4989881;28;20030;-22
2022/01/15 02:55:45;;;;;;;4.35;4.05;;;16.50;62.00;;;;;;4983448;28;20117;-21
2022/01/15 02:58:11;;;;;;;4.20;4.00;;;16.50;62.10;;;;;;4995595;28;20018;-20
2022/01/15 03:00:36;;;;;;;5.03;4.72;;;16.60;62.10;;;;;;4996598;28;20022;-20
2022/01/15 03:03:02;;;;;;;4.28;4.07;;;16.60;62.20;;;;;;4995064;28;20084;-19
2022/01/15 03:05:28;;;;;;;3.92;3.72;;;16.50;62.10;;;;;;4996745;28;20530;-22
2022/01/15 03:07:53;;;;;;;4.45;4.15;;;16.50;62.00;;;;;;4997443;28;20037;-19
2022/01/15 03:10:19;;;;;;;4.80;4.55;;;16.60;62.00;;;;;;4995891;28;20057;-18
2022/01/15 03:12:45;;;;;;;4.30;4.00;;;16.50;62.00;;;;;;4996729;28;20372;-21
2022/01/15 03:15:17;;;;;;;4.10;3.90;;;16.50;62.10;;;;;;4997121;28;20030;-21
2022/01/15 03:17:42;;;;;;;4.55;4.25;;;16.50;62.00;;;;;;4995346;28;20057;-21
2022/01/15 03:20:08;;;;;;;4.13;3.92;;;16.50;62.10;;;;;;4994586;28;20030;-22
2022/01/15 03:22:34;;;;;;;4.25;4.05;;;16.50;62.00;;;;;;4996747;28;20018;-22
2022/01/15 03:24:59;;;;;;;4.45;4.15;;;16.50;62.00;;;;;;4993434;28;20041;-21
2022/01/15 03:27:25;;;;;;;3.95;3.75;;;16.50;62.10;;;;;;4996014;28;20618;-21
2022/01/15 03:29:51;;;;;;;4.63;4.32;;;16.50;62.20;;;;;;4996388;28;20038;-20
2022/01/15 03:32:17;;;;;;;3.97;3.78;;;16.50;62.10;;;;;;4995092;28;20081;-19
2022/01/15 03:34:43;;;;;;;4.55;4.25;;;16.50;62.10;;;;;;4995112;28;20046;-21
2022/01/15 03:37:09;;;;;;;4.30;4.10;;;16.50;62.10;;;;;;4996345;28;20181;-19
2022/01/15 03:39:35;;;;;;;4.70;4.40;;;16.50;62.00;;;;;;4994080;28;20033;-19
2022/01/15 03:42:02;;;;;;;4.80;4.50;;;16.50;62.10;;;;;;4996712;28;20026;-19
2022/01/15 03:44:27;;;;;;;3.92;3.72;;;16.50;62.00;;;;;;4992401;28;20096;-19
2022/01/15 03:46:53;;;;;;;4.45;4.22;;;16.40;62.00;;;;;;4996833;28;20034;-20
2022/01/15 03:49:18;;;;;;;3.90;3.70;;;16.50;62.00;;;;;;4995627;28;20038;-21
2022/01/15 03:51:44;;;;;;;4.68;4.38;;;16.50;61.90;;;;;;4996998;28;20036;-21
2022/01/15 03:54:10;;;;;;;4.85;4.55;;;16.50;61.90;;;;;;4997278;28;20105;-19
2022/01/15 03:56:35;;;;;;;4.07;3.88;;;16.50;62.00;;;;;;4998399;28;20073;-19
2022/01/15 03:59:01;;;;;;;4.30;4.10;;;16.50;62.00;;;;;;5000203;28;20451;-21
2022/01/15 04:01:27;;;;;;;4.60;4.30;;;16.50;62.00;;;;;;5000612;28;20022;-21
2022/01/15 04:03:52;;;;;;;4.18;3.97;;;16.40;61.90;;;;;;4999659;28;20037;-20
2022/01/15 04:06:18;;;;;;;4.30;4.10;;;16.40;61.80;;;;;;5000576;28;20058;-20
2022/01/15 04:08:43;;;;;;;4.28;4.07;;;16.40;61.90;;;;;;4995388;28;20076;-21
2022/01/15 04:11:09;;;;;;;4.93;4.63;;;16.40;61.90;;;;;;4990459;28;20054;-20
2022/01/15 04:13:34;;;;;;;3.85;3.65;;;16.40;61.90;;;;;;4994902;28;20034;-19
2022/01/15 04:16:00;;;;;;;4.10;3.90;;;16.40;61.80;;;;;;4999043;28;20032;-19
2022/01/15 04:18:28;;;;;;;4.10;3.90;;;16.40;61.90;;;;;;4999715;28;20032;-19
2022/01/15 04:20:56;;;;;;;4.47;4.28;;;16.40;61.90;;;;;;4999959;28;20033;-20
2022/01/15 04:23:22;;;;;;;4.28;4.07;;;16.40;61.80;;;;;;4990840;28;20026;-22
2022/01/15 04:25:47;;;;;;;4.50;4.30;;;16.40;61.70;;;;;;4999806;28;20475;-20
2022/01/15 04:28:13;;;;;;;4.20;4.00;;;16.40;61.80;;;;;;4999433;28;20081;-19
2022/01/15 04:30:41;;;;;;;3.88;3.67;;;16.40;61.70;;;;;;4999268;28;20470;-20
2022/01/15 04:33:07;;;;;;;4.35;4.05;;;16.40;61.70;;;;;;5000339;28;20027;-21
2022/01/15 04:35:32;;;;;;;3.92;3.72;;;16.40;61.70;;;;;;4998433;28;20031;-21
2022/01/15 04:38:06;;;;;;;3.83;3.63;;;16.40;61.80;;;;;;4996112;28;20023;-19
2022/01/15 04:40:32;;;;;;;4.05;3.85;;;16.30;61.80;;;;;;4999214;28;20471;-20
2022/01/15 04:42:58;;;;;;;4.03;3.83;;;16.40;61.80;;;;;;4999534;28;20026;-22
2022/01/15 04:45:23;;;;;;;4.72;4.43;;;16.40;61.70;;;;;;4999304;28;20041;-20
2022/01/15 04:47:49;;;;;;;4.60;4.40;;;16.40;61.80;;;;;;4999317;28;20038;-21
2022/01/15 04:50:16;;;;;;;4.38;4.18;;;16.40;61.80;;;;;;4999489;28;20364;-20
2022/01/15 04:52:42;;;;;;;4.20;4.00;;;16.40;61.70;;;;;;4997312;28;20442;-20
2022/01/15 04:55:08;;;;;;;3.95;3.75;;;16.40;61.70;;;;;;4999534;28;20030;-19
2022/01/15 04:57:34;;;;;;;4.35;4.15;;;16.40;61.70;;;;;;4997032;28;20042;-21
2022/01/15 04:59:59;;;;;;;4.20;3.90;;;16.40;61.80;;;;;;4999381;28;20086;-21
2022/01/15 05:02:25;;;;;;;4.10;3.90;;;16.40;61.80;;;;;;4999544;28;20034;-21
2022/01/15 05:04:51;;;;;;;3.85;3.65;;;16.40;61.70;;;;;;4997862;28;20154;-21
2022/01/15 05:07:16;;;;;;;4.25;4.05;;;16.30;61.70;;;;;;4996594;28;20034;-19
2022/01/15 05:09:43;;;;;;;4.15;3.95;;;16.30;61.70;;;;;;4999207;28;20113;-19
2022/01/15 05:12:12;;;;;;;4.13;3.92;;;16.30;61.60;;;;;;4999270;28;20434;-20
2022/01/15 05:14:38;;;;;;;4.70;4.40;;;16.30;61.60;;;;;;4999630;28;20054;-21
2022/01/15 05:17:03;;;;;;;4.95;4.65;;;16.40;61.70;;;;;;4998485;28;20485;-21
2022/01/15 05:19:29;;;;;;;4.78;4.47;;;16.30;61.70;;;;;;4998975;28;20602;-18
2022/01/15 05:21:56;;;;;;;4.15;3.95;;;16.30;61.80;;;;;;4998524;28;20030;-20
2022/01/15 05:24:22;;;;;;;4.70;4.40;;;16.30;61.80;;;;;;4990148;28;20475;-21
2022/01/15 05:26:48;;;;;;;4.18;3.97;;;16.30;61.80;;;;;;4998835;28;20418;-22
2022/01/15 05:29:14;;;;;;;4.53;4.18;;;16.30;61.80;;;;;;4995931;28;20030;-18
2022/01/15 05:31:39;;;;;;;4.30;4.10;;;16.30;61.80;;;;;;4998373;28;20049;-20
2022/01/15 05:34:05;;;;;;;3.88;3.67;;;16.30;61.80;;;;;;4999131;28;20034;-19
2022/01/15 05:36:31;;;;;;;4.28;4.07;;;16.30;61.70;;;;;;4998735;28;20030;-19
2022/01/15 05:38:56;;;;;;;4.55;4.25;;;16.30;61.90;;;;;;4996832;28;20030;-18
2022/01/15 05:41:22;;;;;;;4.53;4.25;;;16.30;61.90;;;;;;4998656;28;20117;-21
2022/01/15 05:43:48;;;;;;;4.13;3.92;;;16.20;62.10;;;;;;4998991;28;20058;-19
2022/01/15 05:46:13;;;;;;;4.45;4.15;;;16.20;62.00;;;;;;4997844;28;20495;-21
2022/01/15 05:48:39;;;;;;;4.38;4.07;;;16.20;61.90;;;;;;4997932;28;20034;-21
2022/01/15 05:51:04;;;;;;;4.00;3.80;;;16.30;61.90;;;;;;4996536;28;20033;-21
2022/01/15 05:53:30;;;;;;;4.13;3.92;;;16.30;62.00;;;;;;4996990;28;20098;-20
2022/01/15 05:55:56;;;;;;;5.25;4.95;;;16.20;62.00;;;;;;4994673;28;20121;-20
2022/01/15 05:58:21;;;;;;;4.43;4.22;;;16.20;62.10;;;;;;4997356;28;20080;-20
2022/01/15 06:00:47;;;;;;;4.53;4.25;;;16.20;62.00;;;;;;4993950;28;20030;-20
2022/01/15 06:03:12;;;;;;;4.97;4.68;;;16.20;62.10;;;;;;4997397;28;20027;-20
2022/01/15 06:05:38;;;;;;;3.92;3.72;;;16.20;62.10;;;;;;4997228;28;20022;-18
2022/01/15 06:08:04;;;;;;;4.13;3.85;;;16.20;62.20;;;;;;4996473;28;20109;-20
2022/01/15 06:10:29;;;;;;;4.20;3.92;;;16.20;62.20;;;;;;4997330;28;20133;-19
2022/01/15 06:12:55;;;;;;;4.47;4.18;;;16.20;62.40;;;;;;4997915;28;20053;-20
2022/01/15 06:15:21;;;;;;;3.75;3.55;;;16.10;62.40;;;;;;4997060;28;20034;-21
2022/01/15 06:17:46;;;;;;;4.50;4.30;;;16.10;62.30;;;;;;4995244;28;20022;-20
2022/01/15 06:20:13;;;;;;;4.30;4.10;;;16.10;62.30;;;;;;4997896;28;20026;-22
2022/01/15 06:22:39;;;;;;;4.28;4.07;;;16.20;62.20;;;;;;4997370;28;20030;-20
2022/01/15 06:25:05;;;;;;;4.30;4.10;;;16.20;62.40;;;;;;4997463;28;20037;-21
2022/01/15 06:27:31;;;;;;;3.97;3.78;;;16.20;62.40;;;;;;4995848;28;20632;-21
2022/01/15 06:29:57;;;;;;;4.50;4.20;;;16.10;62.30;;;;;;4997401;28;20027;-19
2022/01/15 06:32:26;;;;;;;4.18;3.97;;;16.10;63.10;;;;;;4997670;28;20630;-18
2022/01/15 06:34:51;;;;;;;4.38;4.00;;;16.20;62.30;;;;;;4994813;28;20127;-21
2022/01/15 06:37:18;;;;;;;3.88;3.67;;;16.10;62.30;;;;;;4996859;28;20029;-21
2022/01/15 06:39:44;;;;;;;4.80;4.50;;;16.10;62.30;;;;;;4995770;28;20058;-20
2022/01/15 06:42:10;;;;;;;4.53;4.22;;;16.10;62.40;;;;;;4997027;28;20029;-19
2022/01/15 06:44:35;;;;;;;4.47;4.20;;;16.10;62.40;;;;;;4995683;28;20031;-20
2022/01/15 06:47:01;;;;;;;4.40;4.10;;;16.10;62.20;;;;;;4995790;28;20030;-19
2022/01/15 06:49:26;;;;;;;4.45;4.25;;;16.10;62.30;;;;;;4996049;28;20030;-19
2022/01/15 06:51:52;;;;;;;3.88;3.67;;;16.10;62.40;;;;;;4997775;28;20031;-21
2022/01/15 06:54:17;;;;;;;5.00;4.70;;;16.10;62.30;;;;;;4994964;28;20065;-20
2022/01/15 06:56:43;;;;;;;4.00;3.80;;;16.10;62.30;;;;;;4994315;28;20026;-20
2022/01/15 06:59:09;;;;;;;4.18;3.97;;;16.10;62.30;;;;;;4995912;28;20226;-21
2022/01/15 07:01:34;;;;;;;3.90;3.70;;;16.10;62.30;;;;;;4996031;28;20026;-20
2022/01/15 07:04:00;;;;;;;4.18;3.90;;;16.10;62.20;;;;;;4997489;28;20041;-19
2022/01/15 07:06:26;;;;;;;3.90;3.70;;;16.10;62.30;;;;;;4996515;28;20022;-19
2022/01/15 07:08:51;;;;;;;4.60;4.30;;;16.10;62.50;;;;;;4997161;28;20026;-21
2022/01/15 07:11:17;;;;;;;4.75;4.40;;;16.00;62.40;;;;;;4995286;28;20471;-19
2022/01/15 07:13:43;;;;;;;4.15;3.92;;;16.10;62.50;;;;;;4995374;28;20104;-21
2022/01/15 07:16:08;;;;;;;4.60;4.30;;;16.00;62.60;;;;;;4997218;28;20114;-21
2022/01/15 07:18:34;;;;;;;3.92;3.72;;;16.00;62.60;;;;;;4991879;28;20035;-19
2022/01/15 07:20:59;;;;;;;4.72;4.40;;;16.00;62.50;;;;;;4993642;28;20025;-20
2022/01/15 07:23:25;;;;;;;4.93;4.53;;;16.00;63.20;;;;;;4995425;28;20030;-20
2022/01/15 07:25:51;;;;;;;63.85;29.85;;;16.10;62.40;;;;;;4996975;28;20018;-21
2022/01/15 07:28:18;;;;;;;48.63;23.08;;;16.00;62.20;;;;;;4996170;28;20415;-20
2022/01/15 07:30:44;;;;;;;29.25;16.27;;;16.00;62.40;;;;;;4996662;28;20033;-20
2022/01/15 07:33:10;;;;;;;48.97;27.05;;;16.00;62.20;;;;;;4995948;28;20100;-19
2022/01/15 07:35:35;;;;;;;44.63;25.77;;;16.10;62.30;;;;;;4995102;28;20050;-21
2022/01/15 07:38:01;;;;;;;52.88;29.33;;;16.10;61.90;;;;;;4644906;28;10000678;-21
2022/01/15 07:40:27;;;;;;;52.35;28.73;;;16.10;62.00;;;;;;4987227;28;20074;-19
2022/01/15 07:42:52;;;;;;;42.17;25.58;;;16.10;62.30;;;;;;4987119;28;20043;-19
2022/01/15 07:45:18;;;;;;;48.50;27.35;;;16.00;62.30;;;;;;4993765;28;20415;-22
2022/01/15 07:47:43;;;;;;;50.63;27.10;;;16.00;62.40;;;;;;5001762;28;20080;-21
2022/01/15 07:50:12;;;;;;;48.20;27.48;;;16.10;62.50;;;;;;4991320;28;20100;-19
2022/01/15 07:52:37;;;;;;;43.83;26.15;;;16.10;62.50;;;;;;4990651;28;20039;-23
2022/01/15 07:55:04;;;;;;;39.47;24.48;;;16.00;62.60;;;;;;4994128;28;20448;-21
2022/01/15 07:57:29;;;;;;;33.05;19.77;;;16.10;62.30;;;;;;5010247;28;20049;-20
2022/01/15 07:59:55;;;;;;;28.60;17.15;;;16.10;62.00;;;;;;5009774;28;20049;-19
2022/01/15 08:02:20;;;;;;;26.23;16.95;;;16.10;62.00;;;;;;5019506;28;20555;-18
2022/01/15 08:04:46;;;;;;;29.38;17.13;;;16.10;62.10;;;;;;5013657;28;20471;-19
2022/01/15 08:07:12;;;;;;;28.75;17.30;;;16.00;62.00;;;;;;5015467;28;20559;-20
2022/01/15 08:09:37;;;;;;;25.02;15.77;;;16.00;62.10;;;;;;5011249;28;20168;-21
2022/01/15 08:12:03;;;;;;;24.88;15.93;;;16.00;62.10;;;;;;5010490;28;20094;-20
2022/01/15 08:14:29;;;;;;;22.42;15.82;;;16.00;62.10;;;;;;5014533;28;20050;-20
2022/01/15 08:16:55;;;;;;;23.42;16.48;;;15.90;62.00;;;;;;5000490;28;20100;-18
2022/01/15 08:19:21;;;;;;;25.05;17.33;;;16.00;62.20;;;;;;4990010;28;20102;-19
2022/01/15 08:21:46;;;;;;;23.80;16.23;;;16.00;61.80;;;;;;4991114;28;20050;-21
2022/01/15 08:24:12;;;;;;;23.20;15.80;;;16.00;62.00;;;;;;4990590;28;20441;-22
2022/01/15 08:26:38;;;;;;;23.73;16.40;;;16.10;61.70;;;;;;4990204;28;20055;-21
2022/01/15 08:29:03;;;;;;;21.55;14.60;;;16.20;61.40;;;;;;4993219;28;20050;-21
2022/01/15 08:31:29;;;;;;;21.95;15.57;;;16.10;61.60;;;;;;4992934;28;20042;-21
2022/01/15 08:33:55;;;;;;;23.65;15.00;;;16.10;61.90;;;;;;4993267;28;20050;-20
2022/01/15 08:36:21;;;;;;;20.50;14.57;;;16.10;62.00;;;;;;4993133;28;20051;-20
2022/01/15 08:38:46;;;;;;;20.17;14.13;;;16.10;62.20;;;;;;4998827;28;20133;-22
2022/01/15 08:41:14;;;;;;;20.63;14.93;;;16.10;62.40;;;;;;5015924;28;20073;-22
2022/01/15 08:43:43;;;;;;;18.85;13.13;;;16.10;62.50;;;;;;5016281;28;20129;-22
2022/01/15 08:46:08;;;;;;;18.85;13.82;;;16.20;62.80;;;;;;5017822;28;20142;-21
2022/01/15 08:48:34;;;;;;;17.92;12.48;;;16.20;62.80;;;;;;5031515;28;20037;-20
2022/01/15 08:51:00;;;;;;;23.58;14.68;;;16.20;62.80;;;;;;5016643;28;20841;-17
2022/01/15 08:53:25;;;;;;;20.25;14.50;;;16.30;62.60;;;;;;5003519;28;20048;-17
2022/01/15 08:55:51;;;;;;;17.52;13.63;;;16.30;62.50;;;;;;5009791;28;20102;-20
2022/01/15 08:58:17;;;;;;;17.35;12.75;;;16.20;62.70;;;;;;5016021;28;20042;-19
2022/01/15 09:00:42;;;;;;;17.98;12.75;;;16.20;62.80;;;;;;5016387;28;20425;-21
2022/01/15 09:03:08;;;;;;;17.00;12.77;;;16.20;62.90;;;;;;5017619;28;20072;-20
2022/01/15 09:05:34;;;;;;;15.50;11.70;;;16.20;62.50;;;;;;5013873;28;20120;-20
2022/01/15 09:08:01;;;;;;;15.38;12.13;;;16.20;62.50;;;;;;4995379;28;20047;-18
2022/01/15 09:10:26;;;;;;;18.30;12.30;;;16.30;62.50;;;;;;4995179;28;20057;-18
2022/01/15 09:12:52;;;;;;;13.73;10.70;;;16.20;62.90;;;;;;4993261;28;20042;-20
2022/01/15 09:15:18;;;;;;;16.70;11.63;;;16.20;62.90;;;;;;4997502;28;20050;-19
2022/01/15 09:17:43;;;;;;;16.70;11.23;;;16.30;63.20;;;;;;4644632;28;9999901;-18
2022/01/15 09:20:10;;;;;;;13.75;10.80;;;16.30;62.70;;;;;;4994041;28;20058;-19
2022/01/15 09:22:36;;;;;;;15.70;11.48;;;16.30;62.50;;;;;;4993439;28;20515;-19
2022/01/15 09:25:02;;;;;;;13.15;10.20;;;16.20;62.40;;;;;;4992688;28;20193;-22
2022/01/15 09:30:12;;;;;;;14.25;10.98;;;16.30;62.40;;;;;;5004879;28;20097;-20
2022/01/15 09:32:42;;;;;;;15.27;12.10;;;16.40;62.70;;;;;;4995431;28;20046;-19
2022/01/15 09:35:08;;;;;;;16.30;10.45;;;16.40;62.50;;;;;;5013859;28;20046;-20
2022/01/15 09:37:34;;;;;;;13.35;10.90;;;16.40;62.30;;;;;;5015793;28;20158;-21
2022/01/15 09:39:59;;;;;;;11.95;9.95;;;16.40;62.20;;;;;;5015123;28;20046;-20
2022/01/15 09:42:25;;;;;;;13.77;9.98;;;16.30;62.10;;;;;;5000931;28;20054;-20
2022/01/15 09:44:52;;;;;;;11.73;9.75;;;16.40;62.10;;;;;;4996621;28;20042;-19
2022/01/15 09:47:20;;;;;;;12.40;9.90;;;16.40;61.90;;;;;;4996510;28;20047;-19
2022/01/15 09:49:46;;;;;;;13.55;10.20;;;16.40;61.80;;;;;;4994483;28;20050;-19
2022/01/15 09:52:12;;;;;;;13.35;10.90;;;16.40;61.70;;;;;;4995111;28;20530;-19
2022/01/15 09:54:38;;;;;;;12.02;10.70;;;16.50;61.70;;;;;;4995309;28;21128;-19
2022/01/15 09:57:04;;;;;;;10.73;9.48;;;16.40;61.50;;;;;;4993346;28;20059;-19
2022/01/15 09:59:30;;;;;;;12.00;9.57;;;16.40;61.60;;;;;;4994365;28;20050;-19
2022/01/15 10:01:57;;;;;;;10.88;9.73;;;16.40;61.50;;;;;;4993028;28;20503;-19
2022/01/15 10:04:23;;;;;;;11.45;9.85;;;16.40;61.50;;;;;;4984387;28;20495;-19
2022/01/15 10:07:08;;;;;;;12.40;10.52;;;16.40;61.50;;;;;;4993949;28;20045;-20
2022/01/15 10:09:34;;;;;;;;;;;16.40;61.40;;;;;;4995198;28;20583;-17
2022/01/15 10:12:00;;;;;;;11.38;9.13;;;16.40;61.40;;;;;;4994524;28;20033;-21
2022/01/15 10:14:41;;;;;;;10.35;8.55;;;16.40;61.40;;;;;;4990423;28;20138;-20
2022/01/15 10:17:24;;;;;;;9.65;8.65;;;16.40;61.50;;;;;;5003068;28;20114;-18
2022/01/15 10:19:50;;;;;;;8.93;8.00;;;16.40;61.50;;;;;;4996002;28;20082;-17
2022/01/15 10:22:20;;;;;;;11.75;9.30;;;16.40;61.30;;;;;;4994863;28;20058;-20
2022/01/15 10:24:52;;;;;;;10.43;8.43;;;16.40;61.50;;;;;;4993256;28;20446;-19
2022/01/15 10:27:17;;;;;;;8.60;7.70;;;16.40;61.50;;;;;;4991385;28;20046;-20
2022/01/15 10:29:51;;;;;;;8.88;7.90;;;16.40;61.50;;;;;;4994191;28;20065;-20
2022/01/15 10:32:17;;;;;;;10.23;7.85;;;16.30;61.60;;;;;;4979706;28;20035;-17
2022/01/15 10:34:43;;;;;;;9.80;7.97;;;16.40;62.00;;;;;;4993001;28;20061;-21
2022/01/15 10:37:13;;;;;;;9.35;8.43;;;16.50;62.50;;;;;;4992477;28;20049;-19
2022/01/15 10:39:40;;;;;;;8.70;7.65;;;16.40;62.10;;;;;;4997353;28;20551;-20
2022/01/15 10:42:13;;;;;;;8.23;7.25;;;16.40;62.60;;;;;;5010931;28;20034;-21
2022/01/15 10:44:39;;;;;;;9.85;7.72;;;16.40;62.50;;;;;;4996110;28;20054;-19
2022/01/15 10:47:16;;;;;;;10.70;7.30;;;16.40;62.50;;;;;;4991750;28;20053;-20
2022/01/15 10:49:41;;;;;;;7.70;7.00;;;16.40;63.00;;;;;;4995155;28;20093;-20
2022/01/15 10:52:21;;;;;;;8.93;7.55;;;16.30;62.50;;;;;;4998830;28;20045;-20
2022/01/15 10:54:58;;;;;;;8.07;7.00;;;16.40;62.90;;;;;;5006642;28;20549;-21
2022/01/15 10:57:35;;;;;;;9.00;7.32;;;16.40;62.50;;;;;;5008152;28;20049;-21
2022/01/15 11:00:10;;;;;;;7.60;6.93;;;16.40;62.40;;;;;;4992663;28;20042;-21
2022/01/15 11:02:36;;;;;;;8.15;7.15;;;16.50;62.10;;;;;;4996025;28;20050;-20
2022/01/15 11:05:03;;;;;;;7.63;6.60;;;16.50;62.50;;;;;;4992640;28;20154;-20
2022/01/15 11:07:32;;;;;;;7.88;7.18;;;16.50;63.20;;;;;;4978385;28;20114;-20
2022/01/15 11:09:58;;;;;;;7.18;6.47;;;16.40;62.30;;;;;;4993577;28;20531;-20
2022/01/15 11:12:27;;;;;;;7.70;6.85;;;16.50;62.80;;;;;;4996147;28;20046;-22
2022/01/15 11:14:53;;;;;;;6.93;6.30;;;16.50;63.20;;;;;;4993293;28;20121;-23
2022/01/15 11:17:18;;;;;;;7.78;6.97;;;16.50;62.20;;;;;;4995598;28;20510;-21
2022/01/15 11:19:45;;;;;;;7.40;6.55;;;16.50;62.10;;;;;;4995460;28;20188;-20
2022/01/15 11:22:11;;;;;;;7.88;7.10;;;16.50;63.40;;;;;;4991549;28;20057;-18
2022/01/15 11:24:36;;;;;;;7.03;6.43;;;16.50;62.50;;;;;;4992779;28;20046;-20
2022/01/15 11:27:02;;;;;;;7.13;6.53;;;16.60;62.70;;;;;;4660459;28;10000167;-20
2022/01/15 11:29:28;;;;;;;7.57;6.60;;;16.50;62.10;;;;;;4992065;28;20050;-17
2022/01/15 11:31:58;;;;;;;7.20;6.47;;;16.60;62.70;;;;;;5004681;28;20049;-20
2022/01/15 11:34:24;;;;;;;7.07;6.57;;;16.50;63.00;;;;;;4997590;28;20050;-18
2022/01/15 11:36:50;;;;;;;6.72;6.07;;;16.60;62.30;;;;;;4992999;28;20080;-20
2022/01/15 11:39:34;;;;;;;7.28;6.68;;;16.60;62.80;;;;;;4978780;28;20082;-20
2022/01/15 11:42:02;;;;;;;;;;;16.60;63.00;;;;;;5007686;28;20137;-19
2022/01/15 11:44:35;;;;;;;12.90;10.60;;;16.60;62.80;;;;;;5011817;28;19967;-18
2022/01/15 11:47:12;;;;;;;11.75;10.40;;;16.60;62.50;;;;;;5010603;28;20422;-20
2022/01/15 11:49:45;;;;;;;11.88;9.63;;;16.60;62.30;;;;;;5009644;28;20049;-19
2022/01/15 11:52:12;;;;;;;11.88;9.90;;;16.70;61.50;;;;;;5010403;28;20053;-20
2022/01/15 11:54:41;;;;;;;11.50;10.32;;;16.70;61.30;;;;;;5009765;28;20053;-20
2022/01/15 11:57:24;;;;;;;10.73;9.27;;;16.70;61.60;;;;;;5008985;28;20060;-22
2022/01/15 11:59:51;;;;;;;9.40;8.50;;;16.70;61.60;;;;;;5009837;28;20560;-20
2022/01/15 12:02:32;;;;;;;9.68;8.68;;;16.70;61.70;;;;;;4997946;28;20062;-19
2022/01/15 12:05:19;;;;;;;9.02;8.13;;;16.70;61.40;;;;;;4998836;28;20760;-19
2022/01/15 12:08:11;;;;;;;8.48;7.68;;;16.80;61.40;;;;;;4988801;28;20539;-20
2022/01/15 12:10:51;;;;;;;7.63;6.93;;;16.80;61.10;;;;;;5010161;28;20100;-20
2022/01/15 12:13:19;;;;;;;7.57;6.90;;;16.70;61.00;;;;;;5000450;28;20054;-19
2022/01/15 12:15:45;;;;;;;7.95;7.25;;;16.70;60.70;;;;;;4989739;28;20046;-17
2022/01/15 12:18:18;;;;;;;6.70;6.18;;;16.80;60.10;;;;;;4994274;28;20968;-18
2022/01/15 12:20:45;;;;;;;6.93;6.27;;;16.80;61.10;;;;;;5016127;28;20030;-20
2022/01/15 12:23:23;;;;;;;6.88;6.22;;;16.70;61.00;;;;;;5014134;28;20104;-19
2022/01/15 12:25:53;;;;;;;7.20;6.53;;;16.80;60.20;;;;;;4996331;28;20443;-20
2022/01/15 12:28:20;;;;;;;7.07;6.47;;;16.70;61.60;;;;;;4994027;28;20116;-21
2022/01/15 12:30:47;;;;;;;6.47;5.88;;;16.70;61.40;;;;;;4994600;28;20073;-20
2022/01/15 12:33:14;;;;;;;8.18;7.38;;;16.70;61.70;;;;;;4994276;28;20092;-18
2022/01/15 12:35:42;;;;;;;7.00;6.40;;;16.70;62.10;;;;;;4994292;28;20050;-19
2022/01/15 12:38:13;;;;;;;7.55;6.80;;;16.70;61.80;;;;;;4998373;28;20533;-18
2022/01/15 12:41:02;;;;;;;6.75;6.15;;;16.70;61.70;;;;;;4996415;28;20046;-21
2022/01/15 12:43:38;;;;;;;7.28;6.57;;;16.80;62.20;;;;;;4999957;28;20073;-20
2022/01/15 12:46:06;;;;;;;7.53;6.85;;;16.70;61.80;;;;;;4994369;28;20050;-22
2022/01/15 12:48:34;;;;;;;6.32;5.93;;;16.70;63.00;;;;;;4994311;28;20057;-20
2022/01/15 12:51:04;;;;;;;6.57;6.07;;;16.80;62.20;;;;;;4994850;28;20042;-22
2022/01/15 12:53:35;;;;;;;6.32;5.70;;;16.80;62.20;;;;;;4998697;28;20086;-23
2022/01/15 12:56:05;;;;;;;24.83;13.18;;;16.80;61.70;;;;;;4994380;28;20053;-22
2022/01/15 12:58:30;;;;;;;41.85;22.02;;;16.80;61.90;;;;;;4994450;28;20077;-23